KCAE Airport (Columbia Metropolitan) Information

FAA: CAE - ICAO: KCAE

KCAE Airport Location

State South Carolina
County Lexington
City Columbia
KCAE Airport is 5 miles southwest of Columbia, SC.
Latitude 33-56-19.8160N
Longitude 081-07-10.3300W
Elevation 236ft

KCAE Airport METARs

METAR KCAE 181156Z 26003KT 10SM CLR M03/M05 A3010 RMK AO2 SLP195 T10281050 10017 21028 51017
Altimeter 30.10"
Temperature -2.8°C (27.0°F)
Wind 260° at 3KT
Clouds Skies are clear.
Visibility 10.0mi
Time observed: 2022-01-18T11:56:00Z

KCAE Airport Details

Status Operational
Activation June 1942
Ownership Public
Usage Public
Chart CHARLOTTE
ATC on-site Yes
Beacon schedule sunset-sunrise
Beacon color clear green

KCAE Airport Contacts

Owner RICHLAND LEXINGTON
Owner address 3250 AIRPORT BLVD, SUITE 10, WEST COLUMBIA, SC 29170
Owner phone 803-822-5050
Manager SANTOS PANTOJA
Manager address 475 SWIFT CREEK ROAD, REMBERT, SC 29128
Manager phone 803-425-1111

KCAE Airport (Columbia Metropolitan) Radio Frequencies

KCAE (Airport) Radio Frequencies

UNICOM 122.95
Common traffic advisory frequency (CTAF) N/A